Impacts TAF Board INFO
FOR SITUATIONAL AWARENESS. NOT TO BE USED FOR FLIGHT PLANNING PURPOSES.
IDs:

KCLT - Charlotte/Douglas In, NC, US

Issued at 2339 UTC 18 Nov 2017
Updated at 0109 UTC 19 Nov 2017
Potential Impact None Slight Moderate High
Time0052Z 19/02Z 19/03Z 19/04Z 19/05Z 19/06Z 19/07Z 19/08Z 19/09Z 19/10Z 19/11Z 19/12Z 19/13Z 19/14Z>>
Type OBS PRVL PRVL PRVL PRVL
  [TEMP]  
PRVL
  [TEMP]  
PRVL
  [TEMP]  
PRVL PRVL PRVL PRVL PRVL PRVL PRVL
VIS 10 >6 >6 >6 >6
  [4]  
>6
  [4]  
>6
  [4]  
>6 >6 >6 >6 >6 >6 >6
CIG 60 50 50 45 45
  [25]  
45
  [25]  
45
  [25]  
60 60 -- -- -- -- --
Cover BKN BKN BKN BKN BKN
  [OVC]  
BKN
  [OVC]  
BKN
  [OVC]  
BKN BKN SCT SCT SCT SCT FEW
FltCat VFR VFR VFR VFR VFR
  [MVFR]  
VFR
  [MVFR]  
VFR
  [MVFR]  
VFR VFR VFR VFR VFR VFR VFR
WX -- -- -- VCSH VCSH
  [-SHRA]  
VCSH
  [-SHRA]  
VCSH
  [-SHRA]  
-- -- -- -- -- -- --
WDir 180 190 190 200 200
[VRB]
200
[VRB]
200
[VRB]
250 250 290 290 290 290 320
WSpd 13 12 12 15 15
  [15]  
15
  [15]  
15
  [15]  
13 13 9 9 9 9 12
WGst -- -- -- 25 25
  [25]  
25
  [25]  
25
  [25]  
21 21 -- -- -- -- 22

Raw TAF
KCLT 182339Z 1823/1924 19012KT P6SM BKN050 WS020/20030KT
  FM190400 20015G25KT P6SM VCSH BKN045 WS020/21040KT
  TEMPO 1905/1908 VRB15G25KT 4SM -SHRA OVC025
  FM190800 25013G21KT P6SM BKN060
  FM191000 29009KT P6SM SCT120
  FM191400 32012G22KT P6SM FEW250


Raw METAR
KCLT 190052Z 18013KT 10SM BKN060 18/11 A2971 RMK AO2 SLP057 T01780111
KCLT 182352Z 19011KT 10SM BKN055 BKN220 17/11 A2974 RMK AO2 SLP068 T01720106 10189 20172 58017
KCLT 182252Z 20011KT 10SM BKN049 BKN200 18/10 A2976 RMK AO2 SLP076 T01780100

METAR Board
Radar Display
Forecast Discussion

FOR SITUATIONAL AWARENESS. NOT TO BE USED FOR FLIGHT PLANNING PURPOSES.